Formosa, Argentina
Current Conditions -  °F | °C
As of 11:00 AM on Thursday 30 Oct 2014 (Local Time) from SARF Reporting Station
Scattered Clouds Scattered Clouds  
Wind Chill: 68°   Ceiling: Unl
Heat Index: 68°   Visibility: 6mi
Dew Point: 66°   Wind: 28mph
Humidity: 94%   Direction: 110°ESE
Pressure: 29.8"   Gusts: NA
Location:  26.18°S, 58.18°W
Report Text: SARF 301400Z 11024KT 9999 SCT025 20/19 Q1009 RERA
Loading
Personal Weather Stations






























Interactive Weather Map New forecast layout! Learn more

10-Day Weather Forecast

Advertisements
Track Severe Weather on mobile